sensor_id;sensor_type;location;lat;lon;timestamp;pressure;altitude;pressure_sealevel;temperature;humidity
76201;BME280;64981;52.930;9.266;2024-03-08T00:00:40;102040.69;;;2.80;65.75
76201;BME280;64981;52.930;9.266;2024-03-08T00:03:08;102022.13;;;2.53;65.99
76201;BME280;64981;52.930;9.266;2024-03-08T00:05:36;102029.22;;;2.67;65.57
76201;BME280;64981;52.930;9.266;2024-03-08T00:08:05;102023.84;;;2.70;65.63
76201;BME280;64981;52.930;9.266;2024-03-08T00:10:30;102036.44;;;2.62;65.88
76201;BME280;64981;52.930;9.266;2024-03-08T00:12:56;102029.47;;;2.62;66.00
76201;BME280;64981;52.930;9.266;2024-03-08T00:15:23;102031.41;;;2.42;66.45
76201;BME280;64981;52.930;9.266;2024-03-08T00:17:48;102028.78;;;2.42;66.66
76201;BME280;64981;52.930;9.266;2024-03-08T00:20:15;102025.97;;;2.46;66.23
76201;BME280;64981;52.930;9.266;2024-03-08T00:22:43;102024.78;;;2.52;66.02
76201;BME280;64981;52.930;9.266;2024-03-08T00:25:09;102025.59;;;2.54;66.13
76201;BME280;64981;52.930;9.266;2024-03-08T00:27:35;102016.38;;;2.79;65.50
76201;BME280;64981;52.930;9.266;2024-03-08T00:30:01;102018.59;;;2.20;66.52
76201;BME280;64981;52.930;9.266;2024-03-08T00:32:27;102012.94;;;2.29;66.44
76201;BME280;64981;52.930;9.266;2024-03-08T00:34:53;102016.59;;;2.42;66.14
76201;BME280;64981;52.930;9.266;2024-03-08T00:37:20;102012.66;;;2.18;66.95
76201;BME280;64981;52.930;9.266;2024-03-08T00:39:49;102017.69;;;2.38;66.40
76201;BME280;64981;52.930;9.266;2024-03-08T00:42:16;102020.69;;;2.48;65.75
76201;BME280;64981;52.930;9.266;2024-03-08T00:44:41;102021.16;;;2.21;66.44
76201;BME280;64981;52.930;9.266;2024-03-08T00:47:07;102014.09;;;2.41;65.79
76201;BME280;64981;52.930;9.266;2024-03-08T00:49:33;102018.78;;;2.67;65.15
76201;BME280;64981;52.930;9.266;2024-03-08T00:51:58;102020.31;;;2.38;65.69
76201;BME280;64981;52.930;9.266;2024-03-08T00:54:24;102008.66;;;2.28;66.34
76201;BME280;64981;52.930;9.266;2024-03-08T00:56:49;102013.31;;;2.39;66.15
76201;BME280;64981;52.930;9.266;2024-03-08T00:59:16;102000.47;;;2.18;66.41
76201;BME280;64981;52.930;9.266;2024-03-08T01:01:41;102005.94;;;2.47;65.48
76201;BME280;64981;52.930;9.266;2024-03-08T01:04:07;101992.53;;;2.37;65.71
76201;BME280;64981;52.930;9.266;2024-03-08T01:06:34;101994.31;;;2.37;65.89
76201;BME280;64981;52.930;9.266;2024-03-08T01:08:59;102002.06;;;2.38;66.03
76201;BME280;64981;52.930;9.266;2024-03-08T01:11:25;101986.13;;;2.10;66.44
76201;BME280;64981;52.930;9.266;2024-03-08T01:13:51;101987.59;;;2.15;66.51
76201;BME280;64981;52.930;9.266;2024-03-08T01:16:16;101980.28;;;2.05;66.86
76201;BME280;64981;52.930;9.266;2024-03-08T01:18:43;101981.81;;;2.26;65.76
76201;BME280;64981;52.930;9.266;2024-03-08T01:21:09;101971.41;;;2.09;66.45
76201;BME280;64981;52.930;9.266;2024-03-08T01:23:34;101975.00;;;2.23;66.11
76201;BME280;64981;52.930;9.266;2024-03-08T01:26:00;101976.25;;;2.16;66.33
76201;BME280;64981;52.930;9.266;2024-03-08T01:28:28;101975.84;;;2.24;66.11
76201;BME280;64981;52.930;9.266;2024-03-08T01:30:53;101959.03;;;2.29;65.64
76201;BME280;64981;52.930;9.266;2024-03-08T01:33:25;101958.97;;;2.31;65.76
76201;BME280;64981;52.930;9.266;2024-03-08T01:35:52;101942.66;;;2.10;66.35
76201;BME280;64981;52.930;9.266;2024-03-08T01:38:18;101946.09;;;2.11;66.05
76201;BME280;64981;52.930;9.266;2024-03-08T01:40:44;101935.84;;;2.08;66.38
76201;BME280;64981;52.930;9.266;2024-03-08T01:43:21;101947.06;;;2.43;65.96
76201;BME280;64981;52.930;9.266;2024-03-08T01:45:47;101936.94;;;1.87;67.58
76201;BME280;64981;52.930;9.266;2024-03-08T01:48:14;101940.38;;;2.04;67.05
76201;BME280;64981;52.930;9.266;2024-03-08T01:50:41;101927.69;;;1.81;67.87
76201;BME280;64981;52.930;9.266;2024-03-08T01:53:08;101931.72;;;1.87;68.08
76201;BME280;64981;52.930;9.266;2024-03-08T01:55:36;101933.50;;;1.69;68.62
76201;BME280;64981;52.930;9.266;2024-03-08T01:58:04;101918.69;;;1.87;67.45
76201;BME280;64981;52.930;9.266;2024-03-08T02:00:32;101926.88;;;1.79;68.04
76201;BME280;64981;52.930;9.266;2024-03-08T02:02:59;101920.78;;;1.80;68.03
76201;BME280;64981;52.930;9.266;2024-03-08T02:05:26;101925.97;;;1.97;67.07
76201;BME280;64981;52.930;9.266;2024-03-08T02:07:51;101924.19;;;1.98;67.35
76201;BME280;64981;52.930;9.266;2024-03-08T02:10:17;101920.19;;;2.08;66.89
76201;BME280;64981;52.930;9.266;2024-03-08T02:12:43;101918.31;;;1.94;67.37
76201;BME280;64981;52.930;9.266;2024-03-08T02:15:09;101915.09;;;2.06;67.23
76201;BME280;64981;52.930;9.266;2024-03-08T02:17:36;101900.84;;;1.96;67.38
76201;BME280;64981;52.930;9.266;2024-03-08T02:20:02;101903.44;;;1.79;68.47
76201;BME280;64981;52.930;9.266;2024-03-08T02:22:30;101896.50;;;1.62;68.31
76201;BME280;64981;52.930;9.266;2024-03-08T02:24:58;101907.53;;;1.67;68.59
76201;BME280;64981;52.930;9.266;2024-03-08T02:27:27;101898.50;;;1.74;68.78
76201;BME280;64981;52.930;9.266;2024-03-08T02:29:55;101895.19;;;1.71;68.76
76201;BME280;64981;52.930;9.266;2024-03-08T02:32:23;101892.72;;;1.51;69.10
76201;BME280;64981;52.930;9.266;2024-03-08T02:34:49;101894.72;;;1.80;68.16
76201;BME280;64981;52.930;9.266;2024-03-08T02:37:15;101885.09;;;1.65;68.85
76201;BME280;64981;52.930;9.266;2024-03-08T02:39:41;101882.78;;;1.59;69.13
76201;BME280;64981;52.930;9.266;2024-03-08T02:42:07;101889.97;;;1.71;68.36
76201;BME280;64981;52.930;9.266;2024-03-08T02:44:33;101894.28;;;1.72;68.49
76201;BME280;64981;52.930;9.266;2024-03-08T02:46:59;101887.81;;;1.79;68.53
76201;BME280;64981;52.930;9.266;2024-03-08T02:49:26;101883.63;;;1.59;68.54
76201;BME280;64981;52.930;9.266;2024-03-08T02:51:52;101886.59;;;1.52;69.14
76201;BME280;64981;52.930;9.266;2024-03-08T02:54:18;101885.59;;;1.54;68.92
76201;BME280;64981;52.930;9.266;2024-03-08T02:56:45;101881.03;;;1.59;68.97
76201;BME280;64981;52.930;9.266;2024-03-08T02:59:12;101886.38;;;1.91;67.89
76201;BME280;64981;52.930;9.266;2024-03-08T03:01:38;101874.63;;;1.82;67.96
76201;BME280;64981;52.930;9.266;2024-03-08T03:04:05;101865.63;;;1.55;68.81
76201;BME280;64981;52.930;9.266;2024-03-08T03:06:30;101871.97;;;1.66;68.67
76201;BME280;64981;52.930;9.266;2024-03-08T03:08:57;101859.75;;;1.34;69.74
76201;BME280;64981;52.930;9.266;2024-03-08T03:11:23;101867.75;;;1.64;69.03
76201;BME280;64981;52.930;9.266;2024-03-08T03:13:49;101857.72;;;1.73;68.27
76201;BME280;64981;52.930;9.266;2024-03-08T03:16:19;101863.34;;;1.49;69.09
76201;BME280;64981;52.930;9.266;2024-03-08T03:18:46;101858.06;;;1.50;69.16
76201;BME280;64981;52.930;9.266;2024-03-08T03:21:13;101860.50;;;1.19;70.30
76201;BME280;64981;52.930;9.266;2024-03-08T03:23:39;101862.88;;;1.41;69.78
76201;BME280;64981;52.930;9.266;2024-03-08T03:26:06;101855.38;;;1.52;68.73
76201;BME280;64981;52.930;9.266;2024-03-08T03:28:32;101858.34;;;1.61;68.24
76201;BME280;64981;52.930;9.266;2024-03-08T03:30:59;101860.66;;;1.50;68.88
76201;BME280;64981;52.930;9.266;2024-03-08T03:33:25;101864.41;;;1.45;69.29
76201;BME280;64981;52.930;9.266;2024-03-08T03:35:50;101865.03;;;1.50;69.32
76201;BME280;64981;52.930;9.266;2024-03-08T03:38:17;101855.38;;;1.35;69.97
76201;BME280;64981;52.930;9.266;2024-03-08T03:40:45;101863.16;;;1.17;70.32
76201;BME280;64981;52.930;9.266;2024-03-08T03:43:11;101853.75;;;1.32;69.91
76201;BME280;64981;52.930;9.266;2024-03-08T03:45:39;101857.28;;;1.48;69.10
76201;BME280;64981;52.930;9.266;2024-03-08T03:48:07;101857.75;;;1.56;68.70
76201;BME280;64981;52.930;9.266;2024-03-08T03:50:35;101846.25;;;1.26;70.30
76201;BME280;64981;52.930;9.266;2024-03-08T03:53:01;101847.94;;;1.27;69.93
76201;BME280;64981;52.930;9.266;2024-03-08T03:55:28;101843.63;;;1.26;69.91
76201;BME280;64981;52.930;9.266;2024-03-08T03:57:54;101845.53;;;1.22;70.03
76201;BME280;64981;52.930;9.266;2024-03-08T04:00:20;101850.44;;;0.94;71.49
76201;BME280;64981;52.930;9.266;2024-03-08T04:02:45;101851.34;;;1.10;71.32
76201;BME280;64981;52.930;9.266;2024-03-08T04:05:12;101844.78;;;1.03;70.62
76201;BME280;64981;52.930;9.266;2024-03-08T04:07:39;101843.56;;;1.10;70.64
76201;BME280;64981;52.930;9.266;2024-03-08T04:10:06;101853.66;;;1.16;71.01
76201;BME280;64981;52.930;9.266;2024-03-08T04:12:33;101850.38;;;1.30;70.16
76201;BME280;64981;52.930;9.266;2024-03-08T04:14:58;101850.31;;;1.32;70.07
76201;BME280;64981;52.930;9.266;2024-03-08T04:17:24;101833.06;;;1.29;69.92
76201;BME280;64981;52.930;9.266;2024-03-08T04:19:50;101839.97;;;1.13;70.84
76201;BME280;64981;52.930;9.266;2024-03-08T04:22:16;101838.59;;;1.23;70.40
76201;BME280;64981;52.930;9.266;2024-03-08T04:24:44;101835.94;;;1.25;70.62
76201;BME280;64981;52.930;9.266;2024-03-08T04:27:10;101840.78;;;0.96;71.47
76201;BME280;64981;52.930;9.266;2024-03-08T04:29:35;101828.66;;;0.78;71.98
76201;BME280;64981;52.930;9.266;2024-03-08T04:32:04;101832.41;;;1.26;70.81
76201;BME280;64981;52.930;9.266;2024-03-08T04:34:30;101836.28;;;1.17;70.91
76201;BME280;64981;52.930;9.266;2024-03-08T04:36:57;101843.00;;;1.04;71.65
76201;BME280;64981;52.930;9.266;2024-03-08T04:39:23;101839.72;;;1.00;71.86
76201;BME280;64981;52.930;9.266;2024-03-08T04:41:50;101837.78;;;1.04;71.79
76201;BME280;64981;52.930;9.266;2024-03-08T04:44:16;101836.22;;;1.18;71.23
76201;BME280;64981;52.930;9.266;2024-03-08T04:46:43;101829.03;;;1.41;69.82
76201;BME280;64981;52.930;9.266;2024-03-08T04:49:09;101819.00;;;1.16;70.70
76201;BME280;64981;52.930;9.266;2024-03-08T04:51:37;101828.19;;;1.23;70.53
76201;BME280;64981;52.930;9.266;2024-03-08T04:54:02;101824.53;;;1.10;71.22
76201;BME280;64981;52.930;9.266;2024-03-08T04:56:30;101812.81;;;1.18;70.77
76201;BME280;64981;52.930;9.266;2024-03-08T04:58:55;101821.47;;;1.19;70.79
76201;BME280;64981;52.930;9.266;2024-03-08T05:01:21;101817.63;;;1.09;71.45
76201;BME280;64981;52.930;9.266;2024-03-08T05:03:47;101823.13;;;1.03;71.98
76201;BME280;64981;52.930;9.266;2024-03-08T05:06:16;101821.44;;;1.02;71.44
76201;BME280;64981;52.930;9.266;2024-03-08T05:08:41;101821.22;;;1.06;71.48
76201;BME280;64981;52.930;9.266;2024-03-08T05:11:07;101809.41;;;0.63;72.94
76201;BME280;64981;52.930;9.266;2024-03-08T05:13:33;101813.91;;;0.79;73.03
76201;BME280;64981;52.930;9.266;2024-03-08T05:16:00;101804.28;;;0.98;71.93
76201;BME280;64981;52.930;9.266;2024-03-08T05:18:25;101810.88;;;1.05;71.43
76201;BME280;64981;52.930;9.266;2024-03-08T05:20:53;101814.69;;;0.98;71.94
76201;BME280;64981;52.930;9.266;2024-03-08T05:23:19;101814.53;;;1.01;71.25
76201;BME280;64981;52.930;9.266;2024-03-08T05:25:45;101812.19;;;0.96;71.68
76201;BME280;64981;52.930;9.266;2024-03-08T05:28:12;101826.38;;;0.89;72.00
76201;BME280;64981;52.930;9.266;2024-03-08T05:30:38;101822.78;;;0.92;72.32
76201;BME280;64981;52.930;9.266;2024-03-08T05:33:04;101822.59;;;0.96;71.77
76201;BME280;64981;52.930;9.266;2024-03-08T05:35:30;101808.25;;;0.52;73.15
76201;BME280;64981;52.930;9.266;2024-03-08T05:37:56;101821.06;;;1.09;71.16
76201;BME280;64981;52.930;9.266;2024-03-08T05:40:21;101814.53;;;0.84;72.04
76201;BME280;64981;52.930;9.266;2024-03-08T05:42:47;101827.28;;;0.88;71.59
76201;BME280;64981;52.930;9.266;2024-03-08T05:45:12;101815.22;;;1.04;71.20
76201;BME280;64981;52.930;9.266;2024-03-08T05:47:40;101820.13;;;0.93;71.53
76201;BME280;64981;52.930;9.266;2024-03-08T05:50:06;101814.09;;;1.27;70.32
76201;BME280;64981;52.930;9.266;2024-03-08T05:52:35;101815.09;;;1.07;70.72
76201;BME280;64981;52.930;9.266;2024-03-08T05:55:01;101810.19;;;0.84;71.75
76201;BME280;64981;52.930;9.266;2024-03-08T05:57:27;101802.03;;;0.73;71.58
76201;BME280;64981;52.930;9.266;2024-03-08T05:59:53;101795.47;;;0.66;72.02
76201;BME280;64981;52.930;9.266;2024-03-08T06:02:19;101795.00;;;0.75;71.54
76201;BME280;64981;52.930;9.266;2024-03-08T06:04:46;101795.41;;;0.85;71.12
76201;BME280;64981;52.930;9.266;2024-03-08T06:07:12;101793.22;;;0.58;72.23
76201;BME280;64981;52.930;9.266;2024-03-08T06:09:38;101794.81;;;0.61;71.63
76201;BME280;64981;52.930;9.266;2024-03-08T06:12:04;101799.78;;;0.84;71.10
76201;BME280;64981;52.930;9.266;2024-03-08T06:14:32;101787.94;;;1.13;69.96
76201;BME280;64981;52.930;9.266;2024-03-08T06:16:57;101787.41;;;1.06;70.30
76201;BME280;64981;52.930;9.266;2024-03-08T06:19:23;101796.94;;;1.57;68.73
76201;BME280;64981;52.930;9.266;2024-03-08T06:21:48;101792.59;;;1.06;69.45
76201;BME280;64981;52.930;9.266;2024-03-08T06:24:14;101796.00;;;1.76;67.86
76201;BME280;64981;52.930;9.266;2024-03-08T06:26:40;101783.44;;;1.66;67.85
76201;BME280;64981;52.930;9.266;2024-03-08T06:29:06;101797.53;;;1.95;67.06
76201;BME280;64981;52.930;9.266;2024-03-08T06:31:33;101778.41;;;2.27;66.47
76201;BME280;64981;52.930;9.266;2024-03-08T06:33:58;101786.38;;;2.09;66.05
76201;BME280;64981;52.930;9.266;2024-03-08T06:36:24;101768.72;;;2.61;64.44
76201;BME280;64981;52.930;9.266;2024-03-08T06:38:50;101775.16;;;3.15;63.10
76201;BME280;64981;52.930;9.266;2024-03-08T06:41:16;101776.88;;;3.30;62.35
76201;BME280;64981;52.930;9.266;2024-03-08T06:43:42;101772.00;;;3.82;60.78
76201;BME280;64981;52.930;9.266;2024-03-08T06:46:09;101760.50;;;3.99;59.77
76201;BME280;64981;52.930;9.266;2024-03-08T06:48:35;101770.41;;;4.49;58.01
76201;BME280;64981;52.930;9.266;2024-03-08T06:51:02;101770.13;;;5.07;56.51
76201;BME280;64981;52.930;9.266;2024-03-08T06:53:28;101763.16;;;4.93;56.63
76201;BME280;64981;52.930;9.266;2024-03-08T06:55:54;101762.94;;;4.96;55.83
76201;BME280;64981;52.930;9.266;2024-03-08T06:58:20;101768.47;;;5.69;54.55
76201;BME280;64981;52.930;9.266;2024-03-08T07:00:45;101768.16;;;6.35;53.33
76201;BME280;64981;52.930;9.266;2024-03-08T07:03:12;101767.34;;;6.58;52.52
76201;BME280;64981;52.930;9.266;2024-03-08T07:05:38;101775.63;;;5.79;53.02
76201;BME280;64981;52.930;9.266;2024-03-08T07:08:05;101783.03;;;5.98;53.66
76201;BME280;64981;52.930;9.266;2024-03-08T07:10:31;101774.44;;;5.96;53.43
76201;BME280;64981;52.930;9.266;2024-03-08T07:12:57;101771.25;;;6.52;52.04
76201;BME280;64981;52.930;9.266;2024-03-08T07:15:22;101781.78;;;6.40;51.22
76201;BME280;64981;52.930;9.266;2024-03-08T07:17:49;101775.13;;;6.83;51.20
76201;BME280;64981;52.930;9.266;2024-03-08T07:20:17;101772.56;;;6.94;50.66
76201;BME280;64981;52.930;9.266;2024-03-08T07:22:46;101774.59;;;6.54;51.71
76201;BME280;64981;52.930;9.266;2024-03-08T07:25:13;101780.53;;;7.17;50.57
76201;BME280;64981;52.930;9.266;2024-03-08T07:27:48;101772.50;;;7.18;50.19
76201;BME280;64981;52.930;9.266;2024-03-08T07:30:14;101777.66;;;7.77;48.59
76201;BME280;64981;52.930;9.266;2024-03-08T07:32:49;101770.00;;;8.07;47.79
76201;BME280;64981;52.930;9.266;2024-03-08T07:35:15;101784.81;;;7.97;47.65
76201;BME280;64981;52.930;9.266;2024-03-08T07:37:44;101761.97;;;8.62;46.62
76201;BME280;64981;52.930;9.266;2024-03-08T07:40:10;101770.06;;;9.13;45.42
76201;BME280;64981;52.930;9.266;2024-03-08T07:42:35;101763.03;;;8.06;46.63
76201;BME280;64981;52.930;9.266;2024-03-08T07:45:02;101757.41;;;8.22;47.54
76201;BME280;64981;52.930;9.266;2024-03-08T07:47:29;101770.06;;;7.39;49.25
76201;BME280;64981;52.930;9.266;2024-03-08T07:49:57;101767.81;;;6.39;51.14
76201;BME280;64981;52.930;9.266;2024-03-08T07:52:25;101773.44;;;7.06;49.88
76201;BME280;64981;52.930;9.266;2024-03-08T07:54:51;101776.50;;;6.52;50.90
76201;BME280;64981;52.930;9.266;2024-03-08T07:57:16;101768.84;;;6.73;50.93
76201;BME280;64981;52.930;9.266;2024-03-08T07:59:42;101765.97;;;7.24;49.47
76201;BME280;64981;52.930;9.266;2024-03-08T08:02:08;101760.41;;;7.39;49.36
76201;BME280;64981;52.930;9.266;2024-03-08T08:04:33;101757.50;;;7.31;48.88
76201;BME280;64981;52.930;9.266;2024-03-08T08:06:59;101761.91;;;6.72;50.14
76201;BME280;64981;52.930;9.266;2024-03-08T08:09:24;101758.28;;;7.09;49.69
76201;BME280;64981;52.930;9.266;2024-03-08T08:12:00;101756.66;;;7.31;49.72
76201;BME280;64981;52.930;9.266;2024-03-08T08:14:28;101740.94;;;7.75;48.88
76201;BME280;64981;52.930;9.266;2024-03-08T08:16:54;101754.44;;;7.48;48.75
76201;BME280;64981;52.930;9.266;2024-03-08T08:19:22;101742.72;;;7.75;48.53
76201;BME280;64981;52.930;9.266;2024-03-08T08:21:48;101745.25;;;8.52;47.21
76201;BME280;64981;52.930;9.266;2024-03-08T08:24:14;101741.41;;;7.69;47.07
76201;BME280;64981;52.930;9.266;2024-03-08T08:26:40;101736.28;;;8.44;46.53
76201;BME280;64981;52.930;9.266;2024-03-08T08:29:07;101733.34;;;9.01;45.63
76201;BME280;64981;52.930;9.266;2024-03-08T08:31:33;101738.19;;;7.77;47.44
76201;BME280;64981;52.930;9.266;2024-03-08T08:33:59;101737.31;;;8.21;46.42
76201;BME280;64981;52.930;9.266;2024-03-08T08:36:25;101748.66;;;7.32;48.51
76201;BME280;64981;52.930;9.266;2024-03-08T08:38:51;101736.13;;;8.02;46.93
76201;BME280;64981;52.930;9.266;2024-03-08T08:41:20;101736.47;;;8.20;46.42
76201;BME280;64981;52.930;9.266;2024-03-08T08:43:48;101738.63;;;8.26;46.72
76201;BME280;64981;52.930;9.266;2024-03-08T08:46:18;101736.63;;;8.61;46.17
76201;BME280;64981;52.930;9.266;2024-03-08T08:48:44;101719.78;;;9.26;45.56
76201;BME280;64981;52.930;9.266;2024-03-08T08:51:11;101730.66;;;8.91;45.52
76201;BME280;64981;52.930;9.266;2024-03-08T08:53:39;101732.34;;;9.64;44.41
76201;BME280;64981;52.930;9.266;2024-03-08T08:56:09;101730.09;;;9.59;44.20
76201;BME280;64981;52.930;9.266;2024-03-08T08:58:42;101718.63;;;9.40;44.38
76201;BME280;64981;52.930;9.266;2024-03-08T09:01:08;101727.66;;;9.67;43.89
76201;BME280;64981;52.930;9.266;2024-03-08T09:03:36;101719.22;;;9.53;43.79
76201;BME280;64981;52.930;9.266;2024-03-08T09:06:04;101717.69;;;8.99;44.95
76201;BME280;64981;52.930;9.266;2024-03-08T09:08:29;101716.16;;;9.48;44.77
76201;BME280;64981;52.930;9.266;2024-03-08T09:10:55;101719.13;;;8.71;44.98
76201;BME280;64981;52.930;9.266;2024-03-08T09:13:21;101707.84;;;8.38;45.69
76201;BME280;64981;52.930;9.266;2024-03-08T09:15:46;101711.59;;;8.56;45.86
76201;BME280;64981;52.930;9.266;2024-03-08T09:18:12;101708.00;;;8.57;45.45
76201;BME280;64981;52.930;9.266;2024-03-08T09:20:38;101695.81;;;8.56;45.69
76201;BME280;64981;52.930;9.266;2024-03-08T09:23:03;101696.91;;;8.10;45.93
76201;BME280;64981;52.930;9.266;2024-03-08T09:25:29;101692.28;;;8.35;46.33
76201;BME280;64981;52.930;9.266;2024-03-08T09:27:55;101687.84;;;8.78;46.51
76201;BME280;64981;52.930;9.266;2024-03-08T09:30:21;101685.84;;;9.63;44.68
76201;BME280;64981;52.930;9.266;2024-03-08T09:32:47;101673.56;;;9.92;43.43
76201;BME280;64981;52.930;9.266;2024-03-08T09:35:13;101678.91;;;9.71;43.57
76201;BME280;64981;52.930;9.266;2024-03-08T09:37:39;101666.56;;;9.72;43.88
76201;BME280;64981;52.930;9.266;2024-03-08T09:40:05;101670.72;;;9.74;43.28
76201;BME280;64981;52.930;9.266;2024-03-08T09:42:35;101676.19;;;10.51;41.79
76201;BME280;64981;52.930;9.266;2024-03-08T09:45:09;101668.97;;;9.85;42.85
76201;BME280;64981;52.930;9.266;2024-03-08T09:47:39;101668.53;;;10.39;42.65
76201;BME280;64981;52.930;9.266;2024-03-08T09:50:08;101654.50;;;10.28;42.89
76201;BME280;64981;52.930;9.266;2024-03-08T09:52:36;101653.25;;;10.32;42.62
76201;BME280;64981;52.930;9.266;2024-03-08T09:55:05;101657.44;;;9.86;43.23
76201;BME280;64981;52.930;9.266;2024-03-08T09:57:32;101651.66;;;10.11;43.29
76201;BME280;64981;52.930;9.266;2024-03-08T09:59:59;101645.00;;;10.16;42.95
76201;BME280;64981;52.930;9.266;2024-03-08T10:02:24;101648.78;;;10.23;42.96
76201;BME280;64981;52.930;9.266;2024-03-08T10:04:52;101615.72;;;10.39;42.03
76201;BME280;64981;52.930;9.266;2024-03-08T10:07:18;101636.44;;;10.53;42.23
76201;BME280;64981;52.930;9.266;2024-03-08T10:09:44;101618.03;;;10.80;40.39
76201;BME280;64981;52.930;9.266;2024-03-08T10:12:16;101632.25;;;10.41;41.50
76201;BME280;64981;52.930;9.266;2024-03-08T10:14:43;101615.69;;;10.67;41.27
76201;BME280;64981;52.930;9.266;2024-03-08T10:17:09;101618.72;;;11.28;40.67
76201;BME280;64981;52.930;9.266;2024-03-08T10:19:35;101612.34;;;11.85;39.63
76201;BME280;64981;52.930;9.266;2024-03-08T10:22:00;101612.59;;;12.10;39.07
76201;BME280;64981;52.930;9.266;2024-03-08T10:24:26;101603.28;;;11.61;39.15
76201;BME280;64981;52.930;9.266;2024-03-08T10:26:53;101607.41;;;11.73;39.36
76201;BME280;64981;52.930;9.266;2024-03-08T10:29:19;101593.06;;;11.93;38.92
76201;BME280;64981;52.930;9.266;2024-03-08T10:31:45;101604.19;;;12.14;38.76
76201;BME280;64981;52.930;9.266;2024-03-08T10:34:13;101591.47;;;12.00;38.23
76201;BME280;64981;52.930;9.266;2024-03-08T10:36:41;101592.47;;;12.17;38.51
76201;BME280;64981;52.930;9.266;2024-03-08T10:39:21;101582.94;;;12.24;37.33
76201;BME280;64981;52.930;9.266;2024-03-08T10:41:53;101593.94;;;12.55;37.54
76201;BME280;64981;52.930;9.266;2024-03-08T10:44:40;101567.94;;;12.32;38.12
76201;BME280;64981;52.930;9.266;2024-03-08T10:47:26;101576.06;;;13.00;37.39
76201;BME280;64981;52.930;9.266;2024-03-08T10:52:35;101562.03;;;13.58;36.34
76201;BME280;64981;52.930;9.266;2024-03-08T10:55:02;101552.94;;;13.68;35.84
76201;BME280;64981;52.930;9.266;2024-03-08T10:57:29;101560.47;;;12.97;36.21
76201;BME280;64981;52.930;9.266;2024-03-08T10:59:55;101561.78;;;12.50;37.34
76201;BME280;64981;52.930;9.266;2024-03-08T11:02:25;101548.41;;;12.16;37.03
76201;BME280;64981;52.930;9.266;2024-03-08T11:04:52;101561.75;;;12.24;37.95
76201;BME280;64981;52.930;9.266;2024-03-08T11:07:22;101558.09;;;11.72;38.49
76201;BME280;64981;52.930;9.266;2024-03-08T11:09:48;101551.75;;;12.00;38.36
76201;BME280;64981;52.930;9.266;2024-03-08T11:12:25;101551.22;;;12.14;38.02
76201;BME280;64981;52.930;9.266;2024-03-08T11:14:53;101549.19;;;11.73;38.94
76201;BME280;64981;52.930;9.266;2024-03-08T11:17:39;101539.88;;;12.04;38.32
76201;BME280;64981;52.930;9.266;2024-03-08T11:20:11;101537.28;;;12.30;37.69
76201;BME280;64981;52.930;9.266;2024-03-08T11:22:42;101531.31;;;12.28;37.31
76201;BME280;64981;52.930;9.266;2024-03-08T11:25:32;101523.06;;;12.31;37.53
76201;BME280;64981;52.930;9.266;2024-03-08T11:28:10;101527.34;;;12.06;37.72
76201;BME280;64981;52.930;9.266;2024-03-08T11:30:46;101522.09;;;12.14;37.24
76201;BME280;64981;52.930;9.266;2024-03-08T11:33:15;101509.88;;;11.78;38.43
76201;BME280;64981;52.930;9.266;2024-03-08T11:35:42;101509.41;;;12.43;37.90
76201;BME280;64981;52.930;9.266;2024-03-08T11:38:11;101489.88;;;12.19;37.77
76201;BME280;64981;52.930;9.266;2024-03-08T11:40:39;101489.97;;;12.86;38.10
76201;BME280;64981;52.930;9.266;2024-03-08T11:43:05;101495.47;;;12.41;36.80
76201;BME280;64981;52.930;9.266;2024-03-08T11:45:34;101489.41;;;12.23;37.29
76201;BME280;64981;52.930;9.266;2024-03-08T11:48:02;101496.31;;;12.42;38.04
76201;BME280;64981;52.930;9.266;2024-03-08T11:50:29;101484.16;;;12.83;37.16
76201;BME280;64981;52.930;9.266;2024-03-08T11:53:00;101475.06;;;12.34;36.87
76201;BME280;64981;52.930;9.266;2024-03-08T11:55:27;101457.50;;;12.59;37.13
76201;BME280;64981;52.930;9.266;2024-03-08T11:58:01;101474.88;;;12.27;37.35
76201;BME280;64981;52.930;9.266;2024-03-08T12:00:27;101477.75;;;12.16;37.89
76201;BME280;64981;52.930;9.266;2024-03-08T12:03:02;101456.31;;;12.27;37.99
76201;BME280;64981;52.930;9.266;2024-03-08T12:05:28;101433.06;;;12.47;38.02
76201;BME280;64981;52.930;9.266;2024-03-08T12:07:57;101453.06;;;12.33;37.69
76201;BME280;64981;52.930;9.266;2024-03-08T12:10:23;101446.53;;;11.84;38.37
76201;BME280;64981;52.930;9.266;2024-03-08T12:12:52;101439.47;;;12.11;38.59
76201;BME280;64981;52.930;9.266;2024-03-08T12:15:21;101412.28;;;12.26;38.06
76201;BME280;64981;52.930;9.266;2024-03-08T12:17:50;101441.06;;;12.21;38.36
76201;BME280;64981;52.930;9.266;2024-03-08T12:20:20;101438.09;;;12.50;37.82
76201;BME280;64981;52.930;9.266;2024-03-08T12:22:48;101435.75;;;12.21;38.06
76201;BME280;64981;52.930;9.266;2024-03-08T12:25:15;101420.63;;;12.14;38.18
76201;BME280;64981;52.930;9.266;2024-03-08T12:27:43;101422.72;;;12.28;38.21
76201;BME280;64981;52.930;9.266;2024-03-08T12:30:22;101418.94;;;12.30;38.48
76201;BME280;64981;52.930;9.266;2024-03-08T12:32:55;101400.72;;;12.69;38.60
76201;BME280;64981;52.930;9.266;2024-03-08T12:35:23;101401.72;;;12.68;38.77
76201;BME280;64981;52.930;9.266;2024-03-08T12:37:54;101402.91;;;12.82;38.33
76201;BME280;64981;52.930;9.266;2024-03-08T12:40:30;101397.09;;;12.36;38.73
76201;BME280;64981;52.930;9.266;2024-03-08T12:42:58;101394.34;;;12.20;38.94
76201;BME280;64981;52.930;9.266;2024-03-08T12:45:24;101385.72;;;11.49;39.60
76201;BME280;64981;52.930;9.266;2024-03-08T12:47:51;101387.69;;;12.16;39.58
76201;BME280;64981;52.930;9.266;2024-03-08T12:50:17;101381.22;;;11.85;39.32
76201;BME280;64981;52.930;9.266;2024-03-08T12:52:43;101389.38;;;11.91;39.89
76201;BME280;64981;52.930;9.266;2024-03-08T12:55:09;101370.81;;;12.09;40.47
76201;BME280;64981;52.930;9.266;2024-03-08T12:57:36;101374.19;;;11.76;40.38
76201;BME280;64981;52.930;9.266;2024-03-08T13:00:04;101377.00;;;11.57;40.53